Brasstown, NC

2:17 AM EST on February 27, 2017 (GMT -0500)
Elevation 1780 | | Change Station

Elev 1780 ft 35.02 °N, 83.97 °W | Updated 13 minutes ago

Overcast
Overcast
32.8 °F
Feels Like 33 °F
N
0.0
Wind Variable Wind from SSE
Gusts 2.0 mph

Today
High -- | Low -- °F
--% Chance of Precip.
Yesterday
High -- | Low -- °F
Precip. -- in
Pressure 30.23 in
Visibility 10.0 miles
Clouds Scattered Clouds 12000 ft
Windchill 33 °F
Dew Point 26 °F
Humidity 76%
Rainfall 0.00 in
Snow Depth Not available.
7:07 AM 6:29 PM
New Moon, 1% visible
METAR KRHP 270710Z AUTO 00000KT 10SM SCT120 M01/M04 A3023 RMK AO2 T10101038
Pressure 30.23 in
Visibility 10.0 miles
Clouds Scattered Clouds 12000 ft
Windchill 33 °F
Dew Point 26 °F
Humidity 76%
Rainfall 0.00 in
Snow Depth Not available.
7:07 AM 6:29 PM
New Moon, 1% visible
METAR KRHP 270710Z AUTO 00000KT 10SM SCT120 M01/M04 A3023 RMK AO2 T10101038

Get Your Daily Forecast Email!

Thanks for signing up!

Be on the lookout for a verification email in your inbox.

You'll start receiving the daily forecast at 8 AM.

×

10-Day Weather Forecast

Almanac

Astronomy

Feb. 27, 2017 Rise Set
Actual Time
Civil Twilight
Nautical Twilight
Astronomical Twilight
Moon
Length of Visible Light
Length of Day
Tomorrow will be .
, % of the Moon is Illuminated

Today's Extremes

State Highs State Lows

Community

WunderPhotos

Upload Photos

1,962,540 photos uploaded!

WunderBlog® & News

Nearby

Air Quality

  Air Quality AQ Index Pollutant
Not available.

Snow Depth

Station Depth Elevation

Earthquake Activity

City Distance Mag. Time & Date
Minimum magnitude displayed is 2.5.

Coastal Water Temperatures

Place Temperature

Stations

Nearby Weather Stations

Station Location Temp. Windchill Dew Point Humidity Wind Precip. Elev Updated Type
                   

Watches & Warnings

There are currently no watches in effect.